< < Back
Terminal Aerodrome Forecast


Current Version              Previous Versions:   1  2  3  4  5  6  7  8  9  

Terminal Aerodrome Forecast

698
FTUS42 KGSP 281735
TAFGSP
TAF
KGSP 281735Z 2818/2918 32007G14KT P6SM SKC
     FM282300 35005KT P6SM SKC
     FM291500 19004KT P6SM SKC=

Latest METAR

532
SAUS70 KWBC 281700 RRG
MTRGSP
METAR KGSP 281653Z 30007KT 270V340 10SM CLR 08/M08 A3007 RMK AO2 SLP184
T00781078


USA.gov is the U.S. government's official web portal to all federal, state and local government web resources and services.